sensor_id;sensor_type;location;lat;lon;timestamp;P1;durP1;ratioP1;P2;durP2;ratioP2
53646;SDS011;39550;52.230;5.194;2023-02-15T00:01:45;30.63;;;22.95;;
53646;SDS011;39550;52.230;5.194;2023-02-15T00:04:16;32.10;;;23.42;;
53646;SDS011;39550;52.230;5.194;2023-02-15T00:06:43;33.70;;;24.70;;
53646;SDS011;39550;52.230;5.194;2023-02-15T00:09:09;32.15;;;23.13;;
53646;SDS011;39550;52.230;5.194;2023-02-15T00:11:36;31.90;;;24.85;;
53646;SDS011;39550;52.230;5.194;2023-02-15T00:14:05;34.72;;;24.48;;
53646;SDS011;39550;52.230;5.194;2023-02-15T00:16:36;33.38;;;23.92;;
53646;SDS011;39550;52.230;5.194;2023-02-15T00:19:02;33.83;;;24.50;;
53646;SDS011;39550;52.230;5.194;2023-02-15T00:21:29;31.35;;;22.75;;
53646;SDS011;39550;52.230;5.194;2023-02-15T00:23:56;32.58;;;24.02;;
53646;SDS011;39550;52.230;5.194;2023-02-15T00:26:25;32.58;;;22.98;;
53646;SDS011;39550;52.230;5.194;2023-02-15T00:28:51;31.50;;;24.42;;
53646;SDS011;39550;52.230;5.194;2023-02-15T00:31:17;30.75;;;24.08;;
53646;SDS011;39550;52.230;5.194;2023-02-15T00:33:44;30.38;;;24.13;;
53646;SDS011;39550;52.230;5.194;2023-02-15T00:36:10;30.83;;;24.08;;
53646;SDS011;39550;52.230;5.194;2023-02-15T00:38:35;31.02;;;23.95;;
53646;SDS011;39550;52.230;5.194;2023-02-15T00:41:03;32.13;;;23.73;;
53646;SDS011;39550;52.230;5.194;2023-02-15T00:43:30;30.42;;;23.63;;
53646;SDS011;39550;52.230;5.194;2023-02-15T00:45:56;33.65;;;24.75;;
53646;SDS011;39550;52.230;5.194;2023-02-15T00:48:22;30.63;;;24.67;;
53646;SDS011;39550;52.230;5.194;2023-02-15T00:50:52;30.40;;;23.63;;
53646;SDS011;39550;52.230;5.194;2023-02-15T00:53:19;31.70;;;24.25;;
53646;SDS011;39550;52.230;5.194;2023-02-15T00:55:45;32.55;;;24.17;;
53646;SDS011;39550;52.230;5.194;2023-02-15T00:58:10;31.33;;;24.60;;
53646;SDS011;39550;52.230;5.194;2023-02-15T01:00:37;30.20;;;23.90;;
53646;SDS011;39550;52.230;5.194;2023-02-15T01:03:04;33.10;;;24.27;;
53646;SDS011;39550;52.230;5.194;2023-02-15T01:05:30;31.60;;;24.27;;
53646;SDS011;39550;52.230;5.194;2023-02-15T01:07:57;32.80;;;25.30;;
53646;SDS011;39550;52.230;5.194;2023-02-15T01:10:23;32.17;;;23.95;;
53646;SDS011;39550;52.230;5.194;2023-02-15T01:12:49;32.30;;;24.08;;
53646;SDS011;39550;52.230;5.194;2023-02-15T01:15:16;34.33;;;25.60;;
53646;SDS011;39550;52.230;5.194;2023-02-15T01:17:41;33.50;;;25.58;;
53646;SDS011;39550;52.230;5.194;2023-02-15T01:20:09;32.47;;;24.77;;
53646;SDS011;39550;52.230;5.194;2023-02-15T01:22:34;33.05;;;26.15;;
53646;SDS011;39550;52.230;5.194;2023-02-15T01:25:00;32.38;;;26.17;;
53646;SDS011;39550;52.230;5.194;2023-02-15T01:27:25;34.80;;;24.65;;
53646;SDS011;39550;52.230;5.194;2023-02-15T01:29:50;38.20;;;28.30;;
53646;SDS011;39550;52.230;5.194;2023-02-15T01:32:17;33.63;;;26.20;;
53646;SDS011;39550;52.230;5.194;2023-02-15T01:34:45;33.22;;;25.75;;
53646;SDS011;39550;52.230;5.194;2023-02-15T01:37:11;36.50;;;27.85;;
53646;SDS011;39550;52.230;5.194;2023-02-15T01:39:36;37.75;;;26.92;;
53646;SDS011;39550;52.230;5.194;2023-02-15T01:42:01;37.30;;;27.60;;
53646;SDS011;39550;52.230;5.194;2023-02-15T01:47:16;34.25;;;27.02;;
53646;SDS011;39550;52.230;5.194;2023-02-15T01:49:48;35.95;;;26.75;;
53646;SDS011;39550;52.230;5.194;2023-02-15T01:52:26;36.13;;;27.08;;
53646;SDS011;39550;52.230;5.194;2023-02-15T01:54:52;37.45;;;28.88;;
53646;SDS011;39550;52.230;5.194;2023-02-15T01:57:19;36.90;;;27.25;;
53646;SDS011;39550;52.230;5.194;2023-02-15T01:59:49;37.58;;;28.42;;
53646;SDS011;39550;52.230;5.194;2023-02-15T02:02:21;41.85;;;29.38;;
53646;SDS011;39550;52.230;5.194;2023-02-15T02:04:53;37.03;;;28.38;;
53646;SDS011;39550;52.230;5.194;2023-02-15T02:07:22;40.25;;;29.40;;
53646;SDS011;39550;52.230;5.194;2023-02-15T02:09:52;36.95;;;28.70;;
53646;SDS011;39550;52.230;5.194;2023-02-15T02:12:17;39.13;;;29.23;;
53646;SDS011;39550;52.230;5.194;2023-02-15T02:14:45;38.08;;;29.13;;
53646;SDS011;39550;52.230;5.194;2023-02-15T02:17:13;40.05;;;29.55;;
53646;SDS011;39550;52.230;5.194;2023-02-15T02:22:49;41.55;;;29.85;;
53646;SDS011;39550;52.230;5.194;2023-02-15T02:34:05;39.08;;;28.95;;
53646;SDS011;39550;52.230;5.194;2023-02-15T02:36:33;41.55;;;30.15;;
53646;SDS011;39550;52.230;5.194;2023-02-15T02:41:55;43.75;;;31.65;;
53646;SDS011;39550;52.230;5.194;2023-02-15T02:44:42;39.42;;;30.48;;
53646;SDS011;39550;52.230;5.194;2023-02-15T02:47:18;39.63;;;29.70;;
53646;SDS011;39550;52.230;5.194;2023-02-15T02:49:58;46.05;;;31.27;;
53646;SDS011;39550;52.230;5.194;2023-02-15T02:55:15;37.65;;;28.17;;
53646;SDS011;39550;52.230;5.194;2023-02-15T03:01:03;42.13;;;30.60;;
53646;SDS011;39550;52.230;5.194;2023-02-15T03:06:25;43.37;;;31.30;;
53646;SDS011;39550;52.230;5.194;2023-02-15T03:08:58;40.88;;;30.95;;
53646;SDS011;39550;52.230;5.194;2023-02-15T03:11:29;45.25;;;32.40;;
53646;SDS011;39550;52.230;5.194;2023-02-15T03:13:55;39.45;;;30.13;;
53646;SDS011;39550;52.230;5.194;2023-02-15T03:16:22;41.03;;;29.48;;
53646;SDS011;39550;52.230;5.194;2023-02-15T03:18:51;41.53;;;29.95;;
53646;SDS011;39550;52.230;5.194;2023-02-15T03:24:14;43.33;;;31.55;;
53646;SDS011;39550;52.230;5.194;2023-02-15T03:26:46;41.42;;;31.88;;
53646;SDS011;39550;52.230;5.194;2023-02-15T03:29:17;42.03;;;30.25;;
53646;SDS011;39550;52.230;5.194;2023-02-15T03:31:45;42.78;;;30.48;;
53646;SDS011;39550;52.230;5.194;2023-02-15T03:34:14;42.92;;;28.52;;
53646;SDS011;39550;52.230;5.194;2023-02-15T03:36:58;44.63;;;31.65;;
53646;SDS011;39550;52.230;5.194;2023-02-15T03:42:45;39.58;;;29.70;;
53646;SDS011;39550;52.230;5.194;2023-02-15T03:45:17;41.45;;;30.48;;
53646;SDS011;39550;52.230;5.194;2023-02-15T03:47:53;43.03;;;31.83;;
53646;SDS011;39550;52.230;5.194;2023-02-15T03:50:23;42.00;;;31.15;;
53646;SDS011;39550;52.230;5.194;2023-02-15T03:53:13;44.70;;;31.88;;
53646;SDS011;39550;52.230;5.194;2023-02-15T03:55:41;40.95;;;31.38;;
53646;SDS011;39550;52.230;5.194;2023-02-15T03:58:10;45.43;;;31.33;;
53646;SDS011;39550;52.230;5.194;2023-02-15T04:00:58;42.70;;;31.02;;
53646;SDS011;39550;52.230;5.194;2023-02-15T04:04:01;41.63;;;28.83;;
53646;SDS011;39550;52.230;5.194;2023-02-15T04:06:32;41.08;;;29.70;;
53646;SDS011;39550;52.230;5.194;2023-02-15T04:08:58;42.92;;;30.92;;
53646;SDS011;39550;52.230;5.194;2023-02-15T04:11:41;44.28;;;31.65;;
53646;SDS011;39550;52.230;5.194;2023-02-15T04:14:07;41.20;;;31.45;;
53646;SDS011;39550;52.230;5.194;2023-02-15T04:16:50;42.42;;;30.77;;
53646;SDS011;39550;52.230;5.194;2023-02-15T04:19:16;42.88;;;31.77;;
53646;SDS011;39550;52.230;5.194;2023-02-15T04:22:00;41.47;;;30.35;;
53646;SDS011;39550;52.230;5.194;2023-02-15T04:24:44;42.28;;;30.95;;
53646;SDS011;39550;52.230;5.194;2023-02-15T04:27:27;43.83;;;31.67;;
53646;SDS011;39550;52.230;5.194;2023-02-15T04:29:53;43.40;;;31.42;;
53646;SDS011;39550;52.230;5.194;2023-02-15T04:32:19;40.33;;;29.95;;
53646;SDS011;39550;52.230;5.194;2023-02-15T04:34:45;41.08;;;29.75;;
53646;SDS011;39550;52.230;5.194;2023-02-15T04:37:10;39.10;;;30.23;;
53646;SDS011;39550;52.230;5.194;2023-02-15T04:39:37;41.65;;;30.67;;
53646;SDS011;39550;52.230;5.194;2023-02-15T04:42:02;43.15;;;30.50;;
53646;SDS011;39550;52.230;5.194;2023-02-15T04:44:28;40.65;;;29.95;;
53646;SDS011;39550;52.230;5.194;2023-02-15T04:46:53;39.65;;;29.48;;
53646;SDS011;39550;52.230;5.194;2023-02-15T04:49:19;39.50;;;29.67;;
53646;SDS011;39550;52.230;5.194;2023-02-15T04:51:45;40.35;;;29.77;;
53646;SDS011;39550;52.230;5.194;2023-02-15T04:54:12;38.35;;;28.92;;
53646;SDS011;39550;52.230;5.194;2023-02-15T04:56:37;38.92;;;28.05;;
53646;SDS011;39550;52.230;5.194;2023-02-15T04:59:03;40.50;;;30.15;;
53646;SDS011;39550;52.230;5.194;2023-02-15T05:01:29;39.58;;;30.05;;
53646;SDS011;39550;52.230;5.194;2023-02-15T05:03:54;40.42;;;28.85;;
53646;SDS011;39550;52.230;5.194;2023-02-15T05:06:20;39.17;;;28.40;;
53646;SDS011;39550;52.230;5.194;2023-02-15T05:08:45;39.70;;;30.42;;
53646;SDS011;39550;52.230;5.194;2023-02-15T05:11:11;36.97;;;27.58;;
53646;SDS011;39550;52.230;5.194;2023-02-15T05:13:36;39.20;;;28.33;;
53646;SDS011;39550;52.230;5.194;2023-02-15T05:16:02;39.30;;;29.38;;
53646;SDS011;39550;52.230;5.194;2023-02-15T05:18:27;44.35;;;29.10;;
53646;SDS011;39550;52.230;5.194;2023-02-15T05:20:52;38.92;;;28.55;;
53646;SDS011;39550;52.230;5.194;2023-02-15T05:23:18;37.88;;;26.88;;
53646;SDS011;39550;52.230;5.194;2023-02-15T05:25:49;36.38;;;26.33;;
53646;SDS011;39550;52.230;5.194;2023-02-15T05:28:35;36.70;;;27.15;;
53646;SDS011;39550;52.230;5.194;2023-02-15T05:31:04;34.75;;;26.50;;
53646;SDS011;39550;52.230;5.194;2023-02-15T05:33:37;33.13;;;25.15;;
53646;SDS011;39550;52.230;5.194;2023-02-15T05:36:04;35.58;;;27.52;;
53646;SDS011;39550;52.230;5.194;2023-02-15T05:38:29;33.08;;;26.30;;
53646;SDS011;39550;52.230;5.194;2023-02-15T05:40:55;39.63;;;26.92;;
53646;SDS011;39550;52.230;5.194;2023-02-15T05:43:21;37.10;;;26.80;;
53646;SDS011;39550;52.230;5.194;2023-02-15T05:45:48;37.78;;;28.10;;
53646;SDS011;39550;52.230;5.194;2023-02-15T05:48:16;35.78;;;26.25;;
53646;SDS011;39550;52.230;5.194;2023-02-15T05:50:42;34.60;;;26.08;;
53646;SDS011;39550;52.230;5.194;2023-02-15T05:53:09;37.97;;;25.85;;
53646;SDS011;39550;52.230;5.194;2023-02-15T05:55:37;35.10;;;26.63;;
53646;SDS011;39550;52.230;5.194;2023-02-15T05:58:03;33.72;;;25.55;;
53646;SDS011;39550;52.230;5.194;2023-02-15T06:00:29;32.65;;;24.98;;
53646;SDS011;39550;52.230;5.194;2023-02-15T06:02:54;33.30;;;25.15;;
53646;SDS011;39550;52.230;5.194;2023-02-15T06:05:21;31.88;;;24.35;;
53646;SDS011;39550;52.230;5.194;2023-02-15T06:07:46;31.45;;;23.52;;
53646;SDS011;39550;52.230;5.194;2023-02-15T06:10:11;34.80;;;26.27;;
53646;SDS011;39550;52.230;5.194;2023-02-15T06:12:37;35.08;;;25.33;;
53646;SDS011;39550;52.230;5.194;2023-02-15T06:15:03;33.95;;;25.40;;
53646;SDS011;39550;52.230;5.194;2023-02-15T06:17:29;34.45;;;25.58;;
53646;SDS011;39550;52.230;5.194;2023-02-15T06:19:55;35.10;;;25.80;;
53646;SDS011;39550;52.230;5.194;2023-02-15T06:22:20;30.83;;;24.83;;
53646;SDS011;39550;52.230;5.194;2023-02-15T06:24:46;33.05;;;26.17;;
53646;SDS011;39550;52.230;5.194;2023-02-15T06:27:12;33.50;;;26.33;;
53646;SDS011;39550;52.230;5.194;2023-02-15T06:29:37;34.80;;;26.35;;
53646;SDS011;39550;52.230;5.194;2023-02-15T06:32:03;31.23;;;23.17;;
53646;SDS011;39550;52.230;5.194;2023-02-15T06:34:29;34.72;;;25.92;;
53646;SDS011;39550;52.230;5.194;2023-02-15T06:36:55;32.63;;;25.67;;
53646;SDS011;39550;52.230;5.194;2023-02-15T06:39:21;33.50;;;24.48;;
53646;SDS011;39550;52.230;5.194;2023-02-15T06:41:46;31.10;;;23.83;;
53646;SDS011;39550;52.230;5.194;2023-02-15T06:44:12;33.78;;;25.02;;
53646;SDS011;39550;52.230;5.194;2023-02-15T06:46:37;30.70;;;23.77;;
53646;SDS011;39550;52.230;5.194;2023-02-15T06:49:02;32.35;;;24.95;;
53646;SDS011;39550;52.230;5.194;2023-02-15T06:51:29;30.20;;;22.40;;
53646;SDS011;39550;52.230;5.194;2023-02-15T06:53:54;33.95;;;24.80;;
53646;SDS011;39550;52.230;5.194;2023-02-15T06:56:20;32.00;;;24.73;;
53646;SDS011;39550;52.230;5.194;2023-02-15T06:58:45;30.50;;;23.90;;
53646;SDS011;39550;52.230;5.194;2023-02-15T07:01:11;30.75;;;23.83;;
53646;SDS011;39550;52.230;5.194;2023-02-15T07:03:37;29.90;;;23.08;;
53646;SDS011;39550;52.230;5.194;2023-02-15T07:06:03;32.92;;;22.90;;
53646;SDS011;39550;52.230;5.194;2023-02-15T07:11:01;28.75;;;22.85;;
53646;SDS011;39550;52.230;5.194;2023-02-15T07:13:49;28.60;;;22.42;;
53646;SDS011;39550;52.230;5.194;2023-02-15T07:16:17;32.63;;;24.23;;
53646;SDS011;39550;52.230;5.194;2023-02-15T07:18:43;31.67;;;22.48;;
53646;SDS011;39550;52.230;5.194;2023-02-15T07:21:08;29.73;;;21.85;;
53646;SDS011;39550;52.230;5.194;2023-02-15T07:23:35;31.42;;;22.23;;
53646;SDS011;39550;52.230;5.194;2023-02-15T07:26:01;32.47;;;24.60;;
53646;SDS011;39550;52.230;5.194;2023-02-15T07:28:27;28.17;;;22.40;;
53646;SDS011;39550;52.230;5.194;2023-02-15T07:30:53;32.45;;;22.70;;
53646;SDS011;39550;52.230;5.194;2023-02-15T07:33:19;31.42;;;23.58;;
53646;SDS011;39550;52.230;5.194;2023-02-15T07:35:51;32.58;;;22.70;;
53646;SDS011;39550;52.230;5.194;2023-02-15T07:38:19;27.92;;;22.95;;
53646;SDS011;39550;52.230;5.194;2023-02-15T07:40:45;31.40;;;22.80;;
53646;SDS011;39550;52.230;5.194;2023-02-15T07:43:12;31.17;;;23.40;;
53646;SDS011;39550;52.230;5.194;2023-02-15T07:45:38;28.45;;;22.73;;
53646;SDS011;39550;52.230;5.194;2023-02-15T07:48:04;32.75;;;22.63;;
53646;SDS011;39550;52.230;5.194;2023-02-15T07:50:30;30.50;;;20.95;;
53646;SDS011;39550;52.230;5.194;2023-02-15T07:52:57;31.55;;;22.95;;
53646;SDS011;39550;52.230;5.194;2023-02-15T07:55:24;33.45;;;21.70;;
53646;SDS011;39550;52.230;5.194;2023-02-15T07:57:50;31.48;;;21.10;;
53646;SDS011;39550;52.230;5.194;2023-02-15T08:00:18;31.38;;;21.25;;
53646;SDS011;39550;52.230;5.194;2023-02-15T08:02:49;27.45;;;21.60;;
53646;SDS011;39550;52.230;5.194;2023-02-15T08:05:51;27.15;;;19.90;;
53646;SDS011;39550;52.230;5.194;2023-02-15T08:08:16;29.45;;;20.92;;
53646;SDS011;39550;52.230;5.194;2023-02-15T08:11:13;27.67;;;20.25;;
53646;SDS011;39550;52.230;5.194;2023-02-15T08:16:47;30.05;;;21.42;;
53646;SDS011;39550;52.230;5.194;2023-02-15T08:19:18;31.33;;;20.75;;
53646;SDS011;39550;52.230;5.194;2023-02-15T08:21:46;38.10;;;22.33;;
53646;SDS011;39550;52.230;5.194;2023-02-15T08:24:13;30.55;;;22.65;;
53646;SDS011;39550;52.230;5.194;2023-02-15T08:26:40;29.42;;;20.50;;
53646;SDS011;39550;52.230;5.194;2023-02-15T08:29:07;35.90;;;21.45;;
53646;SDS011;39550;52.230;5.194;2023-02-15T08:31:33;29.40;;;21.48;;
53646;SDS011;39550;52.230;5.194;2023-02-15T08:33:59;33.03;;;22.30;;
53646;SDS011;39550;52.230;5.194;2023-02-15T08:36:26;27.92;;;20.00;;
53646;SDS011;39550;52.230;5.194;2023-02-15T08:38:53;29.92;;;20.33;;
53646;SDS011;39550;52.230;5.194;2023-02-15T08:41:23;29.38;;;21.75;;
53646;SDS011;39550;52.230;5.194;2023-02-15T08:43:54;28.75;;;21.15;;
53646;SDS011;39550;52.230;5.194;2023-02-15T08:46:23;29.05;;;20.42;;
53646;SDS011;39550;52.230;5.194;2023-02-15T08:48:50;28.25;;;20.88;;
53646;SDS011;39550;52.230;5.194;2023-02-15T08:51:16;28.17;;;20.98;;
53646;SDS011;39550;52.230;5.194;2023-02-15T08:53:45;30.08;;;21.15;;
53646;SDS011;39550;52.230;5.194;2023-02-15T08:56:16;31.92;;;22.02;;
53646;SDS011;39550;52.230;5.194;2023-02-15T08:58:45;29.65;;;20.50;;
53646;SDS011;39550;52.230;5.194;2023-02-15T09:01:12;28.10;;;21.00;;
53646;SDS011;39550;52.230;5.194;2023-02-15T09:03:42;30.17;;;21.48;;
53646;SDS011;39550;52.230;5.194;2023-02-15T09:06:08;29.88;;;20.80;;
53646;SDS011;39550;52.230;5.194;2023-02-15T09:08:34;27.52;;;20.08;;
53646;SDS011;39550;52.230;5.194;2023-02-15T09:11:06;30.13;;;21.23;;
53646;SDS011;39550;52.230;5.194;2023-02-15T09:13:37;30.20;;;21.15;;
53646;SDS011;39550;52.230;5.194;2023-02-15T09:16:06;28.90;;;20.45;;
53646;SDS011;39550;52.230;5.194;2023-02-15T09:18:36;32.05;;;21.73;;
53646;SDS011;39550;52.230;5.194;2023-02-15T09:21:11;26.98;;;19.65;;
53646;SDS011;39550;52.230;5.194;2023-02-15T09:23:41;26.48;;;18.95;;
53646;SDS011;39550;52.230;5.194;2023-02-15T09:26:09;28.15;;;20.60;;
53646;SDS011;39550;52.230;5.194;2023-02-15T09:28:36;30.98;;;21.27;;
53646;SDS011;39550;52.230;5.194;2023-02-15T09:31:09;30.27;;;22.20;;
53646;SDS011;39550;52.230;5.194;2023-02-15T09:33:35;29.38;;;19.65;;
53646;SDS011;39550;52.230;5.194;2023-02-15T09:36:01;31.40;;;21.10;;
53646;SDS011;39550;52.230;5.194;2023-02-15T09:38:28;29.88;;;21.02;;
53646;SDS011;39550;52.230;5.194;2023-02-15T09:46:27;29.35;;;20.65;;
53646;SDS011;39550;52.230;5.194;2023-02-15T09:49:05;27.55;;;20.05;;
53646;SDS011;39550;52.230;5.194;2023-02-15T09:51:50;29.00;;;21.15;;
53646;SDS011;39550;52.230;5.194;2023-02-15T09:57:19;33.20;;;21.67;;
53646;SDS011;39550;52.230;5.194;2023-02-15T10:03:00;27.20;;;19.67;;
53646;SDS011;39550;52.230;5.194;2023-02-15T10:09:01;32.38;;;20.98;;
53646;SDS011;39550;52.230;5.194;2023-02-15T10:11:55;29.00;;;20.38;;
53646;SDS011;39550;52.230;5.194;2023-02-15T10:17:56;32.95;;;20.25;;
53646;SDS011;39550;52.230;5.194;2023-02-15T10:20:51;29.27;;;20.55;;
53646;SDS011;39550;52.230;5.194;2023-02-15T10:26:46;30.98;;;23.23;;
53646;SDS011;39550;52.230;5.194;2023-02-15T10:47:56;32.08;;;21.52;;
53646;SDS011;39550;52.230;5.194;2023-02-15T11:01:49;31.00;;;22.35;;
53646;SDS011;39550;52.230;5.194;2023-02-15T11:07:06;32.17;;;22.27;;
53646;SDS011;39550;52.230;5.194;2023-02-15T11:09:43;31.63;;;22.10;;
53646;SDS011;39550;52.230;5.194;2023-02-15T11:12:14;33.85;;;21.90;;
53646;SDS011;39550;52.230;5.194;2023-02-15T11:14:46;32.83;;;24.02;;
53646;SDS011;39550;52.230;5.194;2023-02-15T11:17:35;33.80;;;23.88;;
53646;SDS011;39550;52.230;5.194;2023-02-15T11:20:16;32.42;;;23.50;;
53646;SDS011;39550;52.230;5.194;2023-02-15T11:22:48;31.33;;;21.80;;
53646;SDS011;39550;52.230;5.194;2023-02-15T11:25:25;28.55;;;22.23;;
53646;SDS011;39550;52.230;5.194;2023-02-15T11:27:55;33.17;;;22.45;;
53646;SDS011;39550;52.230;5.194;2023-02-15T11:30:22;30.92;;;21.73;;
53646;SDS011;39550;52.230;5.194;2023-02-15T11:32:51;30.38;;;22.30;;
53646;SDS011;39550;52.230;5.194;2023-02-15T11:35:27;30.20;;;22.23;;
53646;SDS011;39550;52.230;5.194;2023-02-15T11:38:19;30.98;;;22.52;;
53646;SDS011;39550;52.230;5.194;2023-02-15T11:46:05;35.38;;;23.90;;
53646;SDS011;39550;52.230;5.194;2023-02-15T11:48:33;31.00;;;21.85;;
53646;SDS011;39550;52.230;5.194;2023-02-15T11:50:59;32.28;;;22.58;;
53646;SDS011;39550;52.230;5.194;2023-02-15T11:53:28;32.47;;;23.13;;
53646;SDS011;39550;52.230;5.194;2023-02-15T11:55:58;29.55;;;21.90;;
53646;SDS011;39550;52.230;5.194;2023-02-15T11:58:32;31.10;;;22.63;;
53646;SDS011;39550;52.230;5.194;2023-02-15T12:06:29;33.92;;;23.75;;
53646;SDS011;39550;52.230;5.194;2023-02-15T12:11:50;33.90;;;23.55;;
53646;SDS011;39550;52.230;5.194;2023-02-15T12:14:16;35.10;;;25.05;;
53646;SDS011;39550;52.230;5.194;2023-02-15T12:16:45;35.65;;;23.27;;
53646;SDS011;39550;52.230;5.194;2023-02-15T12:19:21;32.58;;;22.77;;
53646;SDS011;39550;52.230;5.194;2023-02-15T12:21:49;30.50;;;22.35;;
53646;SDS011;39550;52.230;5.194;2023-02-15T12:27:16;29.98;;;22.65;;
53646;SDS011;39550;52.230;5.194;2023-02-15T12:29:46;33.50;;;22.95;;
53646;SDS011;39550;52.230;5.194;2023-02-15T12:32:18;33.97;;;23.65;;
53646;SDS011;39550;52.230;5.194;2023-02-15T12:34:48;33.60;;;23.95;;
53646;SDS011;39550;52.230;5.194;2023-02-15T12:37:28;38.15;;;25.85;;
53646;SDS011;39550;52.230;5.194;2023-02-15T12:39:58;30.90;;;22.95;;
53646;SDS011;39550;52.230;5.194;2023-02-15T12:42:25;34.95;;;24.15;;
53646;SDS011;39550;52.230;5.194;2023-02-15T12:47:44;30.70;;;22.60;;
53646;SDS011;39550;52.230;5.194;2023-02-15T12:50:22;33.17;;;23.38;;
53646;SDS011;39550;52.230;5.194;2023-02-15T12:53:02;30.42;;;23.80;;
53646;SDS011;39550;52.230;5.194;2023-02-15T12:55:49;31.70;;;22.25;;
53646;SDS011;39550;52.230;5.194;2023-02-15T12:58:26;33.65;;;25.85;;
53646;SDS011;39550;52.230;5.194;2023-02-15T13:03:46;31.95;;;22.55;;
53646;SDS011;39550;52.230;5.194;2023-02-15T13:06:22;31.30;;;23.52;;
53646;SDS011;39550;52.230;5.194;2023-02-15T13:08:49;34.85;;;24.85;;
53646;SDS011;39550;52.230;5.194;2023-02-15T13:11:26;34.90;;;23.80;;
53646;SDS011;39550;52.230;5.194;2023-02-15T13:13:59;31.60;;;23.38;;
53646;SDS011;39550;52.230;5.194;2023-02-15T13:16:37;38.17;;;26.58;;
53646;SDS011;39550;52.230;5.194;2023-02-15T13:19:15;39.03;;;26.02;;
53646;SDS011;39550;52.230;5.194;2023-02-15T13:21:47;33.42;;;24.48;;
53646;SDS011;39550;52.230;5.194;2023-02-15T13:24:33;35.97;;;24.45;;
53646;SDS011;39550;52.230;5.194;2023-02-15T13:27:02;34.85;;;24.85;;
53646;SDS011;39550;52.230;5.194;2023-02-15T13:29:30;36.30;;;24.38;;
53646;SDS011;39550;52.230;5.194;2023-02-15T13:32:01;35.67;;;25.67;;
53646;SDS011;39550;52.230;5.194;2023-02-15T13:34:33;35.30;;;25.77;;
53646;SDS011;39550;52.230;5.194;2023-02-15T13:39:51;40.58;;;27.05;;
53646;SDS011;39550;52.230;5.194;2023-02-15T13:42:40;39.33;;;27.20;;
53646;SDS011;39550;52.230;5.194;2023-02-15T13:53:28;35.50;;;24.73;;
53646;SDS011;39550;52.230;5.194;2023-02-15T13:56:22;34.85;;;24.92;;
53646;SDS011;39550;52.230;5.194;2023-02-15T14:04:27;35.13;;;26.52;;
53646;SDS011;39550;52.230;5.194;2023-02-15T14:15:32;35.38;;;26.85;;
53646;SDS011;39550;52.230;5.194;2023-02-15T14:32:07;37.88;;;27.25;;
53646;SDS011;39550;52.230;5.194;2023-02-15T14:34:53;42.25;;;28.45;;
53646;SDS011;39550;52.230;5.194;2023-02-15T14:37:47;38.90;;;27.17;;
53646;SDS011;39550;52.230;5.194;2023-02-15T14:40:36;36.42;;;26.98;;
53646;SDS011;39550;52.230;5.194;2023-02-15T14:56:43;48.50;;;30.85;;
53646;SDS011;39550;52.230;5.194;2023-02-15T15:02:47;41.92;;;29.98;;
53646;SDS011;39550;52.230;5.194;2023-02-15T15:05:09;40.17;;;28.90;;
53646;SDS011;39550;52.230;5.194;2023-02-15T15:07:47;43.45;;;29.20;;
53646;SDS011;39550;52.230;5.194;2023-02-15T15:12:43;44.25;;;29.65;;
53646;SDS011;39550;52.230;5.194;2023-02-15T15:17:55;44.83;;;29.35;;
53646;SDS011;39550;52.230;5.194;2023-02-15T15:30:55;46.00;;;31.38;;
53646;SDS011;39550;52.230;5.194;2023-02-15T15:36:16;42.92;;;30.27;;
53646;SDS011;39550;52.230;5.194;2023-02-15T15:42:31;42.47;;;31.00;;
53646;SDS011;39550;52.230;5.194;2023-02-15T15:51:06;40.55;;;29.30;;
53646;SDS011;39550;52.230;5.194;2023-02-15T15:53:38;43.17;;;31.65;;
53646;SDS011;39550;52.230;5.194;2023-02-15T15:56:08;47.38;;;31.58;;
53646;SDS011;39550;52.230;5.194;2023-02-15T15:58:42;45.05;;;31.00;;
53646;SDS011;39550;52.230;5.194;2023-02-15T16:01:11;46.47;;;32.10;;
53646;SDS011;39550;52.230;5.194;2023-02-15T16:03:38;40.28;;;29.45;;
53646;SDS011;39550;52.230;5.194;2023-02-15T16:06:25;42.80;;;31.00;;
53646;SDS011;39550;52.230;5.194;2023-02-15T16:09:08;42.85;;;29.58;;
53646;SDS011;39550;52.230;5.194;2023-02-15T16:11:46;43.88;;;31.00;;
53646;SDS011;39550;52.230;5.194;2023-02-15T16:14:14;45.92;;;29.60;;
53646;SDS011;39550;52.230;5.194;2023-02-15T16:16:46;51.97;;;34.60;;
53646;SDS011;39550;52.230;5.194;2023-02-15T16:19:19;47.80;;;32.55;;
53646;SDS011;39550;52.230;5.194;2023-02-15T16:21:47;44.55;;;31.83;;
53646;SDS011;39550;52.230;5.194;2023-02-15T16:27:32;47.35;;;31.80;;
53646;SDS011;39550;52.230;5.194;2023-02-15T16:29:58;44.63;;;32.50;;
53646;SDS011;39550;52.230;5.194;2023-02-15T16:32:24;47.33;;;32.75;;
53646;SDS011;39550;52.230;5.194;2023-02-15T16:34:52;45.13;;;31.60;;
53646;SDS011;39550;52.230;5.194;2023-02-15T16:37:22;44.63;;;32.08;;
53646;SDS011;39550;52.230;5.194;2023-02-15T16:39:52;48.05;;;32.47;;
53646;SDS011;39550;52.230;5.194;2023-02-15T16:42:19;43.30;;;30.23;;
53646;SDS011;39550;52.230;5.194;2023-02-15T16:44:46;46.78;;;32.33;;
53646;SDS011;39550;52.230;5.194;2023-02-15T16:47:17;48.53;;;33.42;;
53646;SDS011;39550;52.230;5.194;2023-02-15T16:49:47;44.22;;;30.10;;
53646;SDS011;39550;52.230;5.194;2023-02-15T16:52:18;48.38;;;33.17;;
53646;SDS011;39550;52.230;5.194;2023-02-15T16:54:47;44.85;;;32.28;;
53646;SDS011;39550;52.230;5.194;2023-02-15T16:57:18;43.83;;;30.42;;
53646;SDS011;39550;52.230;5.194;2023-02-15T16:59:48;47.50;;;32.28;;
53646;SDS011;39550;52.230;5.194;2023-02-15T17:02:19;45.72;;;31.65;;
53646;SDS011;39550;52.230;5.194;2023-02-15T17:05:06;45.10;;;31.75;;
53646;SDS011;39550;52.230;5.194;2023-02-15T17:07:38;46.42;;;30.80;;
53646;SDS011;39550;52.230;5.194;2023-02-15T17:10:25;48.72;;;35.45;;
53646;SDS011;39550;52.230;5.194;2023-02-15T17:12:55;46.53;;;33.08;;
53646;SDS011;39550;52.230;5.194;2023-02-15T17:18:20;48.75;;;34.00;;
53646;SDS011;39550;52.230;5.194;2023-02-15T17:20:47;45.10;;;32.30;;
53646;SDS011;39550;52.230;5.194;2023-02-15T17:23:21;47.13;;;33.05;;
53646;SDS011;39550;52.230;5.194;2023-02-15T17:26:13;45.90;;;31.88;;
53646;SDS011;39550;52.230;5.194;2023-02-15T17:28:45;46.35;;;31.52;;
53646;SDS011;39550;52.230;5.194;2023-02-15T17:31:12;43.10;;;31.17;;
53646;SDS011;39550;52.230;5.194;2023-02-15T17:33:41;49.08;;;33.38;;
53646;SDS011;39550;52.230;5.194;2023-02-15T17:38:41;48.13;;;32.30;;
53646;SDS011;39550;52.230;5.194;2023-02-15T17:41:43;45.72;;;31.33;;
53646;SDS011;39550;52.230;5.194;2023-02-15T17:44:09;42.97;;;31.70;;
53646;SDS011;39550;52.230;5.194;2023-02-15T17:46:38;45.17;;;32.40;;
53646;SDS011;39550;52.230;5.194;2023-02-15T17:49:05;45.70;;;32.10;;
53646;SDS011;39550;52.230;5.194;2023-02-15T17:51:31;46.35;;;33.28;;
53646;SDS011;39550;52.230;5.194;2023-02-15T17:53:59;45.45;;;32.47;;
53646;SDS011;39550;52.230;5.194;2023-02-15T17:56:43;47.47;;;31.83;;
53646;SDS011;39550;52.230;5.194;2023-02-15T17:59:10;47.50;;;32.45;;
53646;SDS011;39550;52.230;5.194;2023-02-15T18:01:40;46.22;;;32.38;;
53646;SDS011;39550;52.230;5.194;2023-02-15T18:04:30;45.13;;;32.25;;
53646;SDS011;39550;52.230;5.194;2023-02-15T18:07:17;41.78;;;31.02;;
53646;SDS011;39550;52.230;5.194;2023-02-15T18:10:05;41.65;;;30.17;;